バクー の空港の天気 - METARとTAF

ヘイダル・アリエフ国際空港(バクー) ( UBBB / BAK ) - アゼルバイジャン バクー
飛行場実況気象(Metar)
観測時間10/19 22:00 AZT (10/19 18:00 UTC)
風向・風速南東 5m/s
視程10km以上
天気現象
全天の8割程度の雲 雲底高度 880m
気温19℃
湿度78%
気圧1021hPa
METARUBBB 191800Z 14009KT 9999 BKN029 19/15 Q1021 R88/D NOSIG
過去の天気等 Google飛行場航空写真 Wunderground天気予報

過去48時間のMETAR

飛行場予報(TAF)
発表時間: 10/19 21:12 AZT (10/19 17:12 UTC)
予報対象時間: 19日22時 AZT ~ 20日22時 AZT
風向・風速南南東 4m/s
視程10km以上
全天の4割程度の雲 雲底高度 760m
19日22時 AZT ~ 20日8時 AZT に一時的に
少しの雲 雲底高度 370m
全天の8割程度の雲 雲底高度 700m
20日8時 AZT ~ 20日10時 AZT に徐々に
風向・風速南 8m/s
TAF UBBB 191712Z 1918/2018 15008KT 9999 SCT025 TX21/2009Z TN15/2002Z
TEMPO 1918/2004 FEW012 BKN023
BECMG 2004/2006 17016KT